Terminal Aerodrome Forecast
Issued by NWS

Home | Current Version | Previous Version | Text Only | Print | Product List | Glossary On
Versions: 1 2 3 4 5 6 7 8 9 10 11 12 13 14 15 16 17 18 19
317
FTUS43 KICT 111334 AAA
TAFHUT
TAF AMD
KHUT 111334Z 1114/1212 04007KT P6SM BKN008
     FM111700 09004KT P6SM SCT010
     FM111900 16005KT P6SM SCT250
     FM120700 22006KT P6SM SCT250=

USA.gov is the U.S. government's official web portal to all federal, state and local government web resources and services.